Time;durP1;ratioP1;P1;durP2;ratioP2;P2;SDS_P1;SDS_P2;PMS_P1;PMS_P2;Temp;Humidity;BMP_temperature;BMP_pressure;BME280_temperature;BME280_humidity;BME280_pressure;Samples;Min_cycle;Max_cycle;Signal;HPM_P1;HPM_P2
2023/09/27 00:00:07;;;;;;;4.47;4.03;;;19.00;99.90;;;;;;6288158;22;20446;-86
2023/09/27 00:03:08;;;;;;;4.40;4.00;;;19.30;99.90;;;;;;6252299;22;20391;-85
2023/09/27 00:06:00;;;;;;;;;;;;;;;;;;;;;
2023/09/27 00:08:38;;;;;;;5.73;4.93;;;19.10;99.90;;;;;;6293661;22;20451;-85
2023/09/27 00:11:43;;;;;;;4.47;4.17;;;19.20;99.90;;;;;;6289109;22;20395;-87
2023/09/27 00:14:47;;;;;;;5.40;4.90;;;19.20;99.90;;;;;;6299474;22;20388;-87
2023/09/27 00:18:08;;;;;;;6.33;5.10;;;19.00;99.90;;;;;;5128573;27;21007;-85
2023/09/27 00:20:53;;;;;;;5.80;5.30;;;18.80;99.90;;;;;;5119575;28;20487;-87
2023/09/27 00:23:44;;;;;;;;;;;;;;;;;;;;;
2023/09/27 00:26:30;;;;;;;6.23;5.63;;;19.10;99.90;;;;;;5366752;22;20488;-86
2023/09/27 00:29:35;;;;;;;6.10;5.47;;;18.90;99.90;;;;;;5044647;28;20525;-87
2023/09/27 00:32:14;;;;;;;6.47;5.87;;;18.70;99.90;;;;;;5065475;28;20518;-84
2023/09/27 00:35:14;;;;;;;;;;;;;;;;;;;;;
2023/09/27 00:38:20;;;;;;;5.60;5.00;;;18.70;99.90;;;;;;5018418;28;20509;-87
2023/09/27 00:41:04;;;;;;;5.60;5.10;;;18.70;99.90;;;;;;5022826;28;20450;-86
2023/09/27 00:43:54;;;;;;;5.87;5.17;;;18.70;99.90;;;;;;5034765;28;20478;-88
2023/09/27 00:46:25;;;;;;;5.27;4.87;;;18.80;99.90;;;;;;5456449;23;20445;-87
2023/09/27 00:49:10;;;;;;;5.87;5.37;;;18.90;99.90;;;;;;5153042;23;20498;-85
2023/09/27 00:52:12;;;;;;;6.90;6.20;;;18.80;99.90;;;;;;5331521;23;20475;-86
2023/09/27 00:54:53;;;;;;;6.63;6.03;;;18.80;99.90;;;;;;5101801;22;20499;-86
2023/09/27 00:57:54;;;;;;;6.70;6.00;;;18.90;99.90;;;;;;5207116;22;20483;-86
2023/09/27 01:00:31;;;;;;;8.10;5.83;;;18.80;99.90;;;;;;5070590;28;20475;-85
2023/09/27 01:03:23;;;;;;;6.57;5.97;;;18.70;99.90;;;;;;5077739;28;20447;-85
2023/09/27 01:06:02;;;;;;;5.37;4.97;;;18.50;99.90;;;;;;5222195;22;20498;-87
2023/09/27 01:09:07;;;;;;;5.27;4.87;;;18.30;99.90;;;;;;5068167;28;20440;-85
2023/09/27 01:12:10;;;;;;;6.33;5.83;;;18.30;99.90;;;;;;5066826;28;20475;-86
2023/09/27 01:14:59;;;;;;;5.63;5.10;;;18.30;99.90;;;;;;5071572;28;20572;-85
2023/09/27 01:18:02;;;;;;;5.70;5.20;;;18.20;99.90;;;;;;5081421;28;20487;-87
2023/09/27 01:21:02;;;;;;;6.13;5.53;;;18.10;99.90;;;;;;5082353;28;20422;-85
2023/09/27 01:23:39;;;;;;;5.90;5.43;;;18.10;99.90;;;;;;5078164;28;20459;-85
2023/09/27 01:26:56;;;;;;;5.53;5.13;;;18.10;99.90;;;;;;5071655;28;20463;-86
2023/09/27 01:29:40;;;;;;;5.70;5.10;;;18.10;99.90;;;;;;5058945;28;20432;-85
2023/09/27 01:32:08;;;;;;;4.97;4.57;;;18.20;99.90;;;;;;5060613;28;20521;-86
2023/09/27 01:34:52;;;;;;;5.60;5.10;;;18.00;99.90;;;;;;5057398;28;20475;-85
2023/09/27 01:37:29;;;;;;;7.10;5.27;;;18.00;99.90;;;;;;5052448;28;20480;-86
2023/09/27 01:40:33;;;;;;;5.60;5.10;;;18.10;99.90;;;;;;5063725;28;20448;-83
2023/09/27 01:43:26;;;;;;;6.87;5.40;;;18.20;99.90;;;;;;5056590;28;20509;-87
2023/09/27 01:46:21;;;;;;;6.10;5.50;;;18.30;99.90;;;;;;5064150;28;20526;-86
2023/09/27 01:49:14;;;;;;;5.37;4.97;;;18.30;99.90;;;;;;5046185;28;20544;-86
2023/09/27 01:51:54;;;;;;;5.70;5.20;;;18.20;99.90;;;;;;5055867;28;20943;-87
2023/09/27 01:54:57;;;;;;;6.53;5.43;;;18.10;99.90;;;;;;5053339;28;20427;-88
2023/09/27 01:58:02;;;;;;;5.93;5.40;;;17.90;99.90;;;;;;5054092;28;20487;-87
2023/09/27 02:00:49;;;;;;;5.77;5.27;;;17.80;99.90;;;;;;5048777;28;20452;-87
2023/09/27 02:03:45;;;;;;;5.93;5.43;;;17.90;99.90;;;;;;5066118;28;20464;-87
2023/09/27 02:06:26;;;;;;;6.07;5.57;;;18.00;99.90;;;;;;5052502;28;20465;-86
2023/09/27 02:09:33;;;;;;;5.70;5.10;;;17.90;99.90;;;;;;5051117;28;20503;-86
2023/09/27 02:12:28;;;;;;;6.00;5.50;;;17.90;99.90;;;;;;5026010;28;20449;-86
2023/09/27 02:15:10;;;;;;;6.40;5.53;;;18.10;99.90;;;;;;5051971;28;20547;-86
2023/09/27 02:17:55;;;;;;;6.80;6.20;;;18.00;99.90;;;;;;5044725;28;20555;-86
2023/09/27 02:20:49;;;;;;;5.53;5.03;;;18.00;99.90;;;;;;5049201;28;20464;-85
2023/09/27 02:23:33;;;;;;;6.37;5.80;;;17.90;99.90;;;;;;5051278;28;20989;-87
2023/09/27 02:26:22;;;;;;;7.23;6.47;;;18.10;99.90;;;;;;5046105;28;20487;-86
2023/09/27 02:29:20;;;;;;;6.07;5.47;;;18.00;99.90;;;;;;5043996;28;20453;-85
2023/09/27 02:32:10;;;;;;;8.40;6.37;;;17.90;99.90;;;;;;5043153;28;20796;-86
2023/09/27 02:35:21;;;;;;;6.10;5.37;;;17.80;99.90;;;;;;5047746;28;20960;-86
2023/09/27 02:38:20;;;;;;;6.03;5.53;;;17.80;99.90;;;;;;4970780;28;20495;-86
2023/09/27 02:41:06;;;;;;;7.30;6.60;;;17.80;99.90;;;;;;4974271;28;20609;-87
2023/09/27 02:43:52;;;;;;;6.50;5.90;;;17.80;99.90;;;;;;4971500;28;20471;-88
2023/09/27 02:46:50;;;;;;;6.73;6.07;;;17.80;99.90;;;;;;4975407;28;20474;-86
2023/09/27 02:49:38;;;;;;;7.60;6.17;;;17.70;99.90;;;;;;4989695;28;20606;-87
2023/09/27 02:52:19;;;;;;;6.53;5.90;;;17.90;99.90;;;;;;4970425;28;20458;-86
2023/09/27 02:55:18;;;;;;;7.43;6.73;;;17.90;99.90;;;;;;4989255;28;20526;-86
2023/09/27 02:58:29;;;;;;;6.90;6.27;;;18.00;99.90;;;;;;4917257;29;20550;-87
2023/09/27 03:01:08;;;;;;;7.03;6.43;;;17.90;99.90;;;;;;4927565;28;20510;-86
2023/09/27 03:04:08;;;;;;;;;;;;;;;;;;;;;
2023/09/27 03:07:24;;;;;;;7.17;6.47;;;17.60;99.90;;;;;;4962460;28;20467;-86
2023/09/27 03:10:11;;;;;;;6.73;6.13;;;17.60;99.90;;;;;;4977664;28;20436;-86
2023/09/27 03:13:02;;;;;;;6.60;5.97;;;17.60;99.90;;;;;;4969815;28;20508;-87
2023/09/27 03:16:05;;;;;;;7.40;6.70;;;17.60;99.90;;;;;;5127732;22;21054;-85
2023/09/27 03:19:13;;;;;;;7.40;6.50;;;17.30;99.90;;;;;;5032238;28;20435;-86
2023/09/27 03:22:08;;;;;;;6.53;5.93;;;17.30;99.90;;;;;;5042980;28;20451;-87
2023/09/27 03:25:07;;;;;;;6.70;6.00;;;17.00;99.90;;;;;;5036641;28;20444;-85
2023/09/27 03:28:04;;;;;;;6.87;6.23;;;17.10;99.90;;;;;;5036759;28;20434;-86
2023/09/27 03:34:04;;;;;;;7.23;6.63;;;16.80;99.90;;;;;;5039063;28;20473;-84
2023/09/27 03:37:28;;;;;;;;;;;;;;;;;;;;;
2023/09/27 03:40:16;;;;;;;8.10;7.13;;;16.70;99.90;;;;;;4995181;28;20450;-87
2023/09/27 03:43:11;;;;;;;7.17;6.47;;;16.70;99.90;;;;;;4977780;28;20528;-86
2023/09/27 03:45:55;;;;;;;7.33;6.57;;;16.60;99.90;;;;;;4979626;28;20475;-85
2023/09/27 03:48:50;;;;;;;8.13;7.37;;;16.70;99.90;;;;;;4961020;28;20460;-87
2023/09/27 03:52:03;;;;;;;6.63;6.03;;;16.70;99.90;;;;;;4972834;28;20536;-86
2023/09/27 03:54:59;;;;;;;7.60;6.90;;;16.60;99.90;;;;;;4965400;28;20455;-87
2023/09/27 04:00:49;;;;;;;7.63;6.83;;;16.60;99.90;;;;;;4996319;28;20909;-87
2023/09/27 04:03:28;;;;;;;8.40;7.60;;;16.70;99.90;;;;;;4983736;28;20462;-86
2023/09/27 04:06:26;;;;;;;7.80;7.10;;;16.70;99.90;;;;;;4985606;28;20555;-85
2023/09/27 04:09:15;;;;;;;8.80;7.37;;;16.70;99.90;;;;;;4976899;28;20454;-86
2023/09/27 04:12:37;;;;;;;6.67;6.10;;;16.80;99.90;;;;;;4986394;28;20444;-87
2023/09/27 04:15:37;;;;;;;7.30;6.67;;;16.70;99.90;;;;;;4985161;28;20477;-86
2023/09/27 04:38:19;;;;;;;6.37;5.80;;;16.20;99.90;;;;;;4959311;28;20497;-87
2023/09/27 04:41:14;;;;;;;6.60;6.00;;;16.10;99.90;;;;;;4942302;29;20451;-86
2023/09/27 04:44:23;;;;;;;8.27;7.10;;;16.30;99.90;;;;;;4954677;28;20438;-88
2023/09/27 04:47:18;;;;;;;7.27;6.57;;;16.40;99.90;;;;;;4955062;29;20447;-87
2023/09/27 04:50:02;;;;;;;6.67;5.97;;;16.30;99.90;;;;;;4950296;29;20461;-85
2023/09/27 04:52:55;;;;;;;7.13;6.53;;;16.50;99.90;;;;;;4961372;29;20459;-86
2023/09/27 04:55:46;;;;;;;7.30;6.60;;;16.60;99.90;;;;;;4960196;29;20458;-86
2023/09/27 04:58:31;;;;;;;9.23;6.67;;;16.60;99.90;;;;;;4956810;29;20480;-86
2023/09/27 05:01:20;;;;;;;7.93;7.20;;;16.50;99.90;;;;;;4962358;29;20488;-86
2023/09/27 05:04:10;;;;;;;7.07;6.43;;;16.40;99.90;;;;;;4977346;28;20444;-86
2023/09/27 05:11:05;;;;;;;8.00;7.30;;;16.60;99.90;;;;;;5006871;28;20448;-87
2023/09/27 05:14:36;;;;;;;7.50;6.80;;;16.50;99.90;;;;;;5035723;23;20490;-87
2023/09/27 05:18:12;;;;;;;7.80;7.10;;;16.30;99.90;;;;;;5010842;28;20486;-84
2023/09/27 05:21:53;;;;;;;;;;;;;;;;;;;;;
2023/09/27 06:14:30;;;;;;;8.23;5.90;;;16.60;99.90;;;;;;3435975;23;20495;-88
2023/09/27 06:17:34;;;;;;;6.90;6.30;;;16.60;99.90;;;;;;4994230;28;20503;-87
2023/09/27 06:24:22;;;;;;;7.50;6.80;;;16.80;99.90;;;;;;5000916;28;20438;-88
2023/09/27 06:27:48;;;;;;;;;;;;;;;;;;;;;
2023/09/27 06:34:14;;;;;;;6.30;5.70;;;17.00;99.90;;;;;;4937736;29;20473;-87
2023/09/27 06:37:20;;;;;;;7.40;6.77;;;17.30;99.90;;;;;;4939173;29;20481;-88
2023/09/27 06:40:23;;;;;;;6.93;6.33;;;17.10;99.90;;;;;;4932533;29;20506;-87
2023/09/27 06:43:48;;;;;;;7.97;7.10;;;17.10;99.90;;;;;;4914162;29;20446;-88
2023/09/27 06:46:54;;;;;;;7.37;6.70;;;17.00;99.90;;;;;;4931121;29;20461;-87
2023/09/27 06:49:38;;;;;;;7.30;6.63;;;16.80;99.90;;;;;;4939452;29;20446;-85
2023/09/27 06:52:32;;;;;;;10.33;7.70;;;16.90;99.90;;;;;;4918388;29;20546;-85
2023/09/27 06:55:26;;;;;;;10.13;8.50;;;17.00;99.90;;;;;;4922390;29;20461;-86
2023/09/27 06:58:23;;;;;;;10.33;8.47;;;17.10;99.90;;;;;;4928050;29;20496;-89
2023/09/27 07:01:44;;;;;;;9.70;7.00;;;17.20;99.90;;;;;;4905206;29;20454;-87
2023/09/27 07:08:58;;;;;;;7.77;7.00;;;17.10;99.90;;;;;;4926644;29;20484;-87
2023/09/27 07:12:03;;;;;;;8.90;6.93;;;17.10;99.90;;;;;;4997294;28;20483;-88
2023/09/27 07:15:00;;;;;;;7.50;6.80;;;17.40;99.90;;;;;;5023599;28;20439;-86
2023/09/27 07:25:17;;;;;;;7.10;6.60;;;18.60;99.50;;;;;;4904492;29;20444;-86
2023/09/27 07:28:06;;;;;;;7.27;6.57;;;18.40;99.80;;;;;;4945077;28;21155;-86
2023/09/27 07:31:06;;;;;;;7.10;6.40;;;18.20;99.90;;;;;;4965027;28;20466;-87
2023/09/27 07:34:05;;;;;;;7.30;6.60;;;17.70;99.90;;;;;;4898320;29;20470;-87
2023/09/27 07:37:37;;;;;;;7.87;7.17;;;17.50;99.90;;;;;;4904090;29;20492;-87
2023/09/27 07:40:35;;;;;;;6.27;5.67;;;17.60;99.90;;;;;;4885371;29;20476;-85
2023/09/27 07:43:32;;;;;;;6.70;6.10;;;18.00;99.90;;;;;;4902848;29;20458;-86
2023/09/27 07:46:44;;;;;;;7.03;6.33;;;18.00;99.90;;;;;;4899167;29;20967;-87
2023/09/27 07:53:44;;;;;;;;;;;;;;;;;;;;;
2023/09/27 07:56:39;;;;;;;8.30;6.97;;;18.20;99.90;;;;;;4933826;23;20439;-85
2023/09/27 07:59:57;;;;;;;9.03;6.80;;;17.80;99.90;;;;;;4974276;28;20471;-88
2023/09/27 08:06:01;;;;;;;7.80;6.73;;;18.20;99.90;;;;;;4917511;29;20488;-87
2023/09/27 08:08:54;;;;;;;8.20;6.53;;;18.30;99.90;;;;;;4904158;29;20475;-86
2023/09/27 08:12:04;;;;;;;9.57;7.20;;;18.10;99.90;;;;;;4880837;29;20449;-85
2023/09/27 08:15:28;;;;;;;7.60;6.90;;;18.10;99.90;;;;;;4879275;29;20455;-86
2023/09/27 08:18:32;;;;;;;;;;;;;;;;;;;;;
2023/09/27 08:21:04;;;;;;;6.73;6.13;;;18.00;99.90;;;;;;4941404;29;20485;-87
2023/09/27 08:27:36;;;;;;;6.77;6.17;;;18.20;99.90;;;;;;4958505;28;20496;-87
2023/09/27 08:30:39;;;;;;;7.30;6.60;;;18.30;99.90;;;;;;4957204;29;20540;-87
2023/09/27 08:33:17;;;;;;;;;;;;;;;;;;;;;
2023/09/27 08:36:28;;;;;;;6.83;6.23;;;18.30;99.90;;;;;;4955038;29;20862;-86
2023/09/27 08:39:04;;;;;;;7.17;6.47;;;18.40;99.90;;;;;;4968710;28;20523;-88
2023/09/27 08:42:11;;;;;;;6.40;5.80;;;18.50;99.90;;;;;;4970727;28;20445;-84
2023/09/27 08:45:09;;;;;;;7.53;6.13;;;18.50;99.90;;;;;;4968999;28;20479;-85
2023/09/27 08:51:29;;;;;;;6.17;5.57;;;18.60;99.90;;;;;;4901712;29;20590;-86
2023/09/27 08:54:21;;;;;;;5.63;5.13;;;18.30;99.90;;;;;;4892819;29;20497;-86
2023/09/27 08:57:09;;;;;;;6.60;5.93;;;19.10;99.90;;;;;;4949181;29;21036;-87
2023/09/27 08:59:50;;;;;;;6.13;5.60;;;19.20;99.90;;;;;;4959730;29;20461;-85
2023/09/27 09:02:57;;;;;;;7.90;6.20;;;19.30;99.30;;;;;;4986109;28;20463;-90
2023/09/27 09:06:00;;;;;;;6.47;5.53;;;19.30;99.00;;;;;;4968645;28;20499;-87
2023/09/27 09:09:01;;;;;;;6.07;5.47;;;19.30;99.20;;;;;;4970687;28;20480;-87
2023/09/27 09:11:54;;;;;;;6.60;5.93;;;19.20;99.70;;;;;;4970770;28;20468;-87
2023/09/27 09:18:54;;;;;;;8.87;5.80;;;19.50;99.10;;;;;;4951413;29;20499;-87
2023/09/27 09:21:49;;;;;;;6.50;5.90;;;20.10;98.60;;;;;;4957188;28;20485;-86
2023/09/27 09:24:43;;;;;;;6.80;6.20;;;19.70;98.20;;;;;;4974877;28;20467;-86
2023/09/27 09:27:27;;;;;;;6.57;5.97;;;20.00;98.00;;;;;;4949507;28;20527;-87
2023/09/27 09:30:38;;;;;;;6.17;5.67;;;20.00;97.90;;;;;;4922248;28;20884;-86
2023/09/27 09:33:46;;;;;;;;;;;;;;;;;;;;;
2023/09/27 09:37:02;;;;;;;6.90;6.20;;;20.40;97.70;;;;;;4952092;28;20484;-87
2023/09/27 09:43:46;;;;;;;5.90;5.03;;;22.40;95.10;;;;;;4904888;29;20457;-87
2023/09/27 09:46:48;;;;;;;7.50;4.57;;;24.00;91.00;;;;;;4978274;28;21017;-87
2023/09/27 09:49:48;;;;;;;4.90;4.40;;;24.80;87.60;;;;;;4904488;29;20515;-86
2023/09/27 09:53:07;;;;;;;;;;;;;;;;;;;;;
2023/09/27 09:56:26;;;;;;;4.73;4.27;;;24.90;85.20;;;;;;4902929;29;20446;-86
2023/09/27 09:59:33;;;;;;;5.70;4.53;;;25.50;81.60;;;;;;4903442;29;20494;-88
2023/09/27 10:02:35;;;;;;;4.30;4.00;;;25.30;82.60;;;;;;4907599;29;20964;-88
2023/09/27 10:13:11;;;;;;;4.33;3.93;;;27.60;73.50;;;;;;4947176;29;20485;-86
2023/09/27 10:16:05;;;;;;;3.77;3.47;;;27.40;72.50;;;;;;4968313;28;20461;-86
2023/09/27 10:18:43;;;;;;;4.27;3.43;;;26.90;73.40;;;;;;4980307;28;20484;-86
2023/09/27 10:21:26;;;;;;;3.33;3.07;;;26.80;74.60;;;;;;4954776;28;20514;-87
2023/09/27 10:24:07;;;;;;;4.17;3.83;;;26.60;74.80;;;;;;4951770;29;20468;-86
2023/09/27 10:27:01;;;;;;;4.60;3.70;;;26.00;76.80;;;;;;4961271;28;20803;-86
2023/09/27 10:30:04;;;;;;;5.37;4.50;;;25.30;79.20;;;;;;4957857;29;20508;-87
2023/09/27 10:33:40;;;;;;;;;;;;;;;;;;;;;
2023/09/27 10:36:35;;;;;;;3.70;3.40;;;25.50;80.10;;;;;;4974678;28;20500;-86
2023/09/27 10:39:28;;;;;;;3.50;3.20;;;26.40;77.30;;;;;;4971212;28;20483;-85
2023/09/27 10:41:55;;;;;;;3.30;3.10;;;27.40;73.40;;;;;;4961610;28;20488;-85
2023/09/27 10:44:30;;;;;;;3.40;3.03;;;27.00;72.50;;;;;;4963675;28;20484;-84
2023/09/27 10:47:03;;;;;;;3.67;3.20;;;26.70;74.80;;;;;;4948283;28;20485;-85
2023/09/27 10:49:40;;;;;;;3.57;3.27;;;27.90;71.30;;;;;;4935450;28;20495;-84
2023/09/27 10:52:17;;;;;;;3.43;3.20;;;28.00;69.30;;;;;;4940310;29;20460;-85
2023/09/27 10:54:45;;;;;;;3.30;3.00;;;28.70;65.80;;;;;;4955517;28;20461;-86
2023/09/27 10:57:14;;;;;;;3.77;2.83;;;28.30;67.10;;;;;;4943529;29;20492;-84
2023/09/27 10:59:44;;;;;;;3.33;3.03;;;28.20;65.80;;;;;;4940492;29;20525;-84
2023/09/27 11:02:11;;;;;;;4.90;3.40;;;27.80;67.40;;;;;;4944825;29;20461;-84
2023/09/27 11:04:39;;;;;;;4.13;3.23;;;28.10;66.30;;;;;;4953468;28;20492;-85
2023/09/27 11:07:06;;;;;;;3.33;3.00;;;28.00;65.90;;;;;;4951447;28;21181;-86
2023/09/27 11:09:43;;;;;;;3.17;2.97;;;28.00;66.40;;;;;;4939278;29;20461;-85
2023/09/27 11:12:10;;;;;;;2.87;2.67;;;28.00;65.70;;;;;;4942984;29;20467;-87
2023/09/27 11:14:44;;;;;;;4.23;3.50;;;27.90;65.70;;;;;;4968499;28;20532;-83
2023/09/27 11:17:22;;;;;;;5.30;3.60;;;27.80;65.40;;;;;;4951011;28;20492;-83
2023/09/27 11:19:50;;;;;;;4.30;3.50;;;27.90;66.00;;;;;;4941225;29;20457;-84
2023/09/27 11:22:28;;;;;;;2.87;2.67;;;28.10;64.80;;;;;;4944635;28;20454;-84
2023/09/27 11:24:55;;;;;;;5.67;2.93;;;28.00;64.80;;;;;;4958009;29;20459;-86
2023/09/27 11:27:22;;;;;;;3.30;2.83;;;27.10;66.30;;;;;;4960197;29;20469;-87
2023/09/27 11:29:51;;;;;;;4.00;3.30;;;26.50;69.00;;;;;;4947111;28;20472;-83
2023/09/27 11:32:18;;;;;;;3.60;3.30;;;26.60;69.90;;;;;;4940468;29;20468;-81
2023/09/27 11:34:56;;;;;;;3.40;3.10;;;27.30;68.10;;;;;;4938569;28;20552;-84
2023/09/27 11:37:24;;;;;;;2.90;2.70;;;27.50;67.50;;;;;;4951675;28;20485;-83
2023/09/27 11:39:54;;;;;;;3.30;3.10;;;27.80;66.50;;;;;;4936847;28;20516;-83
2023/09/27 11:42:26;;;;;;;4.37;3.03;;;27.40;66.00;;;;;;4940828;29;20854;-83
2023/09/27 11:45:08;;;;;;;2.70;2.50;;;27.50;66.80;;;;;;4940352;29;20449;-82
2023/09/27 11:47:48;;;;;;;3.60;3.20;;;27.70;65.10;;;;;;4939323;28;20501;-84
2023/09/27 11:50:16;;;;;;;5.43;2.90;;;27.60;65.10;;;;;;4939906;29;20460;-83
2023/09/27 11:52:46;;;;;;;3.43;2.90;;;27.30;65.80;;;;;;4954624;28;20671;-83
2023/09/27 12:08:49;;;;;;;6.50;3.33;;;26.10;69.30;;;;;;4941472;28;20567;-85
2023/09/27 12:12:27;;;;;;;4.80;3.40;;;26.30;69.90;;;;;;4955761;28;20543;-86
2023/09/27 12:15:47;;;;;;;4.73;2.80;;;26.90;69.00;;;;;;4942669;28;21192;-86
2023/09/27 12:24:08;;;;;;;;;;;;;;;;;;;;;
2023/09/27 12:35:21;;;;;;;2.87;2.60;;;28.90;59.40;;;;;;4784649;29;20506;-89
2023/09/27 12:42:33;;;;;;;3.87;2.50;;;28.30;60.20;;;;;;4886791;29;20465;-86
2023/09/27 12:45:47;;;;;;;3.67;2.93;;;28.00;60.50;;;;;;4871119;29;20936;-87
2023/09/27 12:48:53;;;;;;;3.10;2.90;;;28.10;60.70;;;;;;4879855;29;20551;-87
2023/09/27 12:55:45;;;;;;;2.13;2.03;;;28.80;60.10;;;;;;4833628;29;20461;-87
2023/09/27 13:03:16;;;;;;;2.47;2.27;;;29.00;58.20;;;;;;4715952;30;20451;-86
2023/09/27 13:07:10;;;;;;;2.43;2.20;;;28.90;57.70;;;;;;4815248;29;21097;-87
2023/09/27 13:09:48;;;;;;;2.50;2.30;;;28.70;57.70;;;;;;4833398;29;20982;-87
2023/09/27 13:12:55;;;;;;;3.03;2.83;;;28.70;57.70;;;;;;4941966;28;20481;-84
2023/09/27 13:16:14;;;;;;;2.37;2.17;;;28.70;57.90;;;;;;4944107;28;20465;-89
2023/09/27 13:19:20;;;;;;;3.80;2.50;;;28.70;58.30;;;;;;4940343;28;20492;-87
2023/09/27 13:23:01;;;;;;;;;;;;;;;;;;;;;
2023/09/27 13:30:34;;;;;;;2.57;2.30;;;28.90;57.80;;;;;;4874916;29;20485;-87
2023/09/27 13:37:28;;;;;;;2.57;2.37;;;28.30;59.40;;;;;;4950709;28;20483;-86
2023/09/27 13:40:55;;;;;;;3.20;2.67;;;28.00;60.80;;;;;;4950577;28;20489;-86
2023/09/27 13:49:15;;;;;;;2.57;2.30;;;27.50;61.60;;;;;;4871826;29;20925;-85
2023/09/27 13:55:41;;;;;;;;;;;;;;;;;;;;;
2023/09/27 13:58:53;;;;;;;3.00;2.70;;;27.90;61.20;;;;;;4936696;28;20491;-85
2023/09/27 14:02:02;;;;;;;;;;;;;;;;;;;;;
2023/09/27 14:08:20;;;;;;;3.23;2.77;;;27.00;63.40;;;;;;4955259;28;20555;-87
2023/09/27 14:11:20;;;;;;;5.33;2.53;;;27.50;64.10;;;;;;4957380;28;20460;-85
2023/09/27 14:14:36;;;;;;;3.63;3.30;;;27.30;62.80;;;;;;4948151;28;20459;-85
2023/09/27 14:17:46;;;;;;;2.53;2.33;;;27.80;61.40;;;;;;4959864;28;20501;-87
2023/09/27 14:24:27;;;;;;;3.17;2.83;;;28.30;60.20;;;;;;4975761;28;20447;-88
2023/09/27 14:27:37;;;;;;;2.13;2.03;;;28.30;61.00;;;;;;4961797;28;20968;-85
2023/09/27 14:34:34;;;;;;;;;;;;;;;;;;;;;
2023/09/27 14:37:57;;;;;;;2.80;2.60;;;28.00;61.10;;;;;;4951766;28;20567;-85
2023/09/27 14:44:23;;;;;;;;;;;;;;;;;;;;;
2023/09/27 14:47:27;;;;;;;5.97;3.10;;;27.80;62.20;;;;;;4911770;29;20550;-85
2023/09/27 14:50:29;;;;;;;2.60;2.27;;;27.70;62.20;;;;;;4890656;29;20477;-88
2023/09/27 14:53:44;;;;;;;;;;;;;;;;;;;;;
2023/09/27 14:57:02;;;;;;;3.40;2.60;;;27.80;61.70;;;;;;4923556;29;20489;-87
2023/09/27 14:59:44;;;;;;;2.70;2.50;;;27.80;63.30;;;;;;4925898;29;20492;-88
2023/09/27 15:03:27;;;;;;;;;;;;;;;;;;;;;
2023/09/27 15:06:50;;;;;;;3.43;3.13;;;27.90;62.40;;;;;;4882740;29;20631;-87
2023/09/27 15:13:48;;;;;;;3.50;2.90;;;27.50;63.70;;;;;;4868329;29;20478;-85
2023/09/27 15:16:50;;;;;;;3.00;2.80;;;27.40;64.70;;;;;;4808628;29;20540;-86
2023/09/27 15:35:25;;;;;;;3.17;2.87;;;27.50;64.40;;;;;;4746901;30;21036;-84
2023/09/27 15:39:18;;;;;;;;;;;;;;;;;;;;;
2023/09/27 15:42:26;;;;;;;4.70;3.03;;;27.40;65.00;;;;;;4763186;30;20565;-85
2023/09/27 15:45:46;;;;;;;4.50;2.90;;;27.20;65.90;;;;;;4824811;29;21046;-87
2023/09/27 15:53:11;;;;;;;;;;;;;;;;;;;;;
2023/09/27 16:00:26;;;;;;;;;;;;;;;;;;;;;
2023/09/27 16:03:44;;;;;;;3.00;2.80;;;26.90;67.50;;;;;;4919277;28;20488;-86
2023/09/27 16:11:07;;;;;;;3.00;2.80;;;26.70;68.30;;;;;;4843636;29;20549;-84
2023/09/27 16:14:32;;;;;;;4.47;4.17;;;26.60;68.80;;;;;;4836305;29;21007;-86
2023/09/27 16:17:38;;;;;;;2.70;2.50;;;26.30;69.30;;;;;;4800035;29;20797;-83
2023/09/27 16:20:59;;;;;;;3.50;3.13;;;26.20;70.10;;;;;;4787204;29;20787;-85
2023/09/27 16:27:28;;;;;;;3.10;2.90;;;25.90;71.90;;;;;;4804444;29;20504;-86
2023/09/27 16:34:47;;;;;;;2.60;2.40;;;25.80;72.80;;;;;;4863456;29;21314;-85
2023/09/27 16:38:29;;;;;;;3.43;3.13;;;25.60;73.30;;;;;;4808809;29;20571;-84
2023/09/27 16:42:05;;;;;;;3.40;3.20;;;25.50;74.40;;;;;;4809497;29;20458;-84
2023/09/27 16:48:25;;;;;;;3.77;3.40;;;25.40;75.10;;;;;;5183556;23;20495;-88
2023/09/27 16:51:50;;;;;;;3.20;2.90;;;25.30;75.80;;;;;;4977555;28;20426;-87
2023/09/27 16:56:02;;;;;;;3.40;2.90;;;25.30;75.90;;;;;;4929825;28;20833;-85
2023/09/27 16:59:37;;;;;;;5.33;3.63;;;25.30;76.50;;;;;;4914243;29;20509;-87
2023/09/27 17:06:37;;;;;;;5.33;3.80;;;25.20;76.80;;;;;;4943494;29;20497;-86
2023/09/27 17:13:57;;;;;;;3.37;3.03;;;25.10;77.00;;;;;;4880447;29;20452;-86
2023/09/27 17:17:34;;;;;;;;;;;;;;;;;;;;;
2023/09/27 17:21:09;;;;;;;3.70;3.40;;;24.60;78.40;;;;;;4937335;29;20486;-86
2023/09/27 17:24:20;;;;;;;4.97;3.53;;;24.50;78.70;;;;;;4928630;28;20468;-85
2023/09/27 17:31:43;;;;;;;;;;;;;;;;;;;;;
2023/09/27 17:35:09;;;;;;;3.40;3.20;;;24.80;78.50;;;;;;4800435;29;20439;-83
2023/09/27 17:42:05;;;;;;;3.33;3.10;;;24.70;78.90;;;;;;4770871;29;20491;-86
2023/09/27 17:45:33;;;;;;;3.53;3.07;;;24.50;79.10;;;;;;4788880;29;20545;-84
2023/09/27 17:48:27;;;;;;;3.37;3.07;;;24.50;79.60;;;;;;4850666;29;20457;-87
2023/09/27 17:51:24;;;;;;;3.90;3.20;;;24.50;79.80;;;;;;4833458;29;21067;-84
2023/09/27 17:54:53;;;;;;;3.13;2.93;;;24.40;80.20;;;;;;4766831;29;20472;-85
2023/09/27 17:58:17;;;;;;;3.20;3.00;;;24.30;80.60;;;;;;4830141;29;20488;-87
2023/09/27 18:02:28;;;;;;;3.30;3.00;;;24.20;81.20;;;;;;4832562;29;20486;-84
2023/09/27 18:09:17;;;;;;;3.50;3.20;;;23.90;82.00;;;;;;4773020;29;20517;-86
2023/09/27 18:13:24;;;;;;;3.90;3.50;;;23.80;82.60;;;;;;4760846;29;20900;-85
2023/09/27 18:16:39;;;;;;;4.00;3.60;;;23.80;82.90;;;;;;4765241;29;20501;-84
2023/09/27 18:32:49;;;;;;;2.77;2.57;;;23.50;84.90;;;;;;4654159;30;20503;-84
2023/09/27 18:36:12;;;;;;;4.67;2.80;;;23.50;86.10;;;;;;4687940;30;20605;-85
2023/09/27 18:39:20;;;;;;;3.63;3.33;;;23.50;85.70;;;;;;4717520;30;20492;-84
2023/09/27 18:43:10;;;;;;;3.10;2.90;;;23.40;86.30;;;;;;4717555;30;20452;-87
2023/09/27 18:50:10;;;;;;;;;;;;;;;;;;;;;
2023/09/27 18:53:42;;;;;;;3.70;3.40;;;23.40;87.00;;;;;;4785294;29;20441;-85
2023/09/27 19:01:00;;;;;;;;;;;;;;;;;;;;;
2023/09/27 19:04:03;;;;;;;4.47;4.17;;;23.10;89.50;;;;;;4916131;29;20442;-85
2023/09/27 19:07:16;;;;;;;3.67;3.47;;;22.90;90.10;;;;;;4888193;29;20481;-86
2023/09/27 19:10:05;;;;;;;3.60;3.30;;;22.90;90.10;;;;;;4917235;29;20460;-86
2023/09/27 19:21:43;;;;;;;5.60;4.00;;;22.50;91.10;;;;;;4910974;28;20538;-88
2023/09/27 19:28:54;;;;;;;4.20;3.90;;;22.90;90.80;;;;;;4895579;29;20448;-86
2023/09/27 19:39:30;;;;;;;;;;;;;;;;;;;;;
2023/09/27 19:54:49;;;;;;;4.20;3.80;;;22.00;93.70;;;;;;4772584;29;20510;-86
2023/09/27 19:57:57;;;;;;;4.53;4.13;;;21.90;93.60;;;;;;4799103;29;20488;-88
2023/09/27 20:05:02;;;;;;;4.40;4.00;;;21.80;94.30;;;;;;4718617;30;21066;-86
2023/09/27 20:07:50;;;;;;;5.43;4.03;;;21.60;94.70;;;;;;5142106;23;20502;-84
2023/09/27 20:10:26;;;;;;;4.57;4.17;;;21.50;95.10;;;;;;4987555;28;20443;-87
2023/09/27 20:17:03;;;;;;;5.00;4.30;;;21.80;94.60;;;;;;4973343;23;21387;-85
2023/09/27 20:23:22;;;;;;;4.20;3.80;;;21.90;94.50;;;;;;4971774;28;20501;-85
2023/09/27 20:26:08;;;;;;;5.73;5.00;;;22.00;94.50;;;;;;4970085;28;20448;-85
2023/09/27 20:28:53;;;;;;;4.77;4.37;;;22.20;94.70;;;;;;4969763;28;20478;-86
2023/09/27 20:31:34;;;;;;;6.07;4.60;;;21.70;94.70;;;;;;4971460;28;20678;-87
2023/09/27 20:34:18;;;;;;;5.40;4.90;;;21.90;94.60;;;;;;4975001;28;20448;-86
2023/09/27 20:37:03;;;;;;;5.47;4.73;;;21.80;94.70;;;;;;4987074;28;20518;-85
2023/09/27 20:39:42;;;;;;;5.13;4.40;;;21.80;95.10;;;;;;4980936;28;20490;-86
2023/09/27 20:42:34;;;;;;;5.43;4.87;;;21.70;95.20;;;;;;4965683;28;20454;-85
2023/09/27 20:45:29;;;;;;;4.40;4.00;;;21.60;95.50;;;;;;4966055;28;20452;-87
2023/09/27 20:51:42;;;;;;;4.77;4.30;;;21.70;94.90;;;;;;4932917;28;20470;-85
2023/09/27 20:54:28;;;;;;;4.80;4.40;;;21.70;95.20;;;;;;4919918;29;20462;-85
2023/09/27 20:57:02;;;;;;;5.40;4.90;;;21.50;95.20;;;;;;4973250;28;20505;-84
2023/09/27 20:59:57;;;;;;;5.13;4.73;;;21.50;95.30;;;;;;4960703;28;20486;-85
2023/09/27 21:02:37;;;;;;;5.83;5.20;;;21.60;95.00;;;;;;4976689;28;20460;-86
2023/09/27 21:05:11;;;;;;;4.57;4.23;;;21.60;95.00;;;;;;4974365;28;21026;-85
2023/09/27 21:07:45;;;;;;;4.83;4.43;;;21.60;94.90;;;;;;4968188;28;20451;-85
2023/09/27 21:10:33;;;;;;;5.57;5.17;;;21.20;94.70;;;;;;4972484;28;20467;-84
2023/09/27 21:13:20;;;;;;;5.10;4.60;;;21.50;95.10;;;;;;4969862;28;20451;-84
2023/09/27 21:16:03;;;;;;;5.20;4.80;;;21.30;95.30;;;;;;4956772;28;20503;-87
2023/09/27 21:18:40;;;;;;;5.47;4.97;;;21.30;95.80;;;;;;4972012;28;21796;-85
2023/09/27 21:21:22;;;;;;;4.37;4.07;;;21.20;96.00;;;;;;4976028;28;20487;-86
2023/09/27 21:23:51;;;;;;;5.67;5.20;;;21.40;95.90;;;;;;4971576;28;20954;-86
2023/09/27 21:26:23;;;;;;;4.87;4.47;;;21.40;95.40;;;;;;4968627;28;20607;-84
2023/09/27 21:28:55;;;;;;;5.37;4.93;;;21.50;95.20;;;;;;4970732;28;20555;-86
2023/09/27 21:31:42;;;;;;;4.90;4.50;;;21.40;95.10;;;;;;4966797;28;20448;-85
2023/09/27 21:34:15;;;;;;;4.30;4.00;;;21.40;95.30;;;;;;4973008;28;20513;-86
2023/09/27 21:36:51;;;;;;;5.20;4.80;;;21.40;95.20;;;;;;4971809;28;20472;-83